sensor_id;sensor_type;location;lat;lon;timestamp;temperature;humidity
13806;DHT22;6974;53.606;9.872;2024-02-21T00:01:28;10.20;99.90
13806;DHT22;6974;53.606;9.872;2024-02-21T00:03:55;10.20;99.90
13806;DHT22;6974;53.606;9.872;2024-02-21T00:06:22;10.20;99.90
13806;DHT22;6974;53.606;9.872;2024-02-21T00:08:49;10.20;99.90
13806;DHT22;6974;53.606;9.872;2024-02-21T00:11:17;10.20;99.90
13806;DHT22;6974;53.606;9.872;2024-02-21T00:13:44;10.30;99.90
13806;DHT22;6974;53.606;9.872;2024-02-21T00:16:11;10.20;99.90
13806;DHT22;6974;53.606;9.872;2024-02-21T00:18:39;10.30;99.90
13806;DHT22;6974;53.606;9.872;2024-02-21T00:21:05;10.30;99.90
13806;DHT22;6974;53.606;9.872;2024-02-21T00:23:32;10.30;99.90
13806;DHT22;6974;53.606;9.872;2024-02-21T00:25:59;10.30;99.90
13806;DHT22;6974;53.606;9.872;2024-02-21T00:28:27;10.30;99.90
13806;DHT22;6974;53.606;9.872;2024-02-21T00:30:54;10.30;99.90
13806;DHT22;6974;53.606;9.872;2024-02-21T00:33:21;10.30;99.90
13806;DHT22;6974;53.606;9.872;2024-02-21T00:35:48;10.20;99.90
13806;DHT22;6974;53.606;9.872;2024-02-21T00:38:15;10.20;99.90
13806;DHT22;6974;53.606;9.872;2024-02-21T00:40:41;10.20;99.90
13806;DHT22;6974;53.606;9.872;2024-02-21T00:43:08;10.20;99.90
13806;DHT22;6974;53.606;9.872;2024-02-21T00:45:36;10.20;99.90
13806;DHT22;6974;53.606;9.872;2024-02-21T00:48:04;10.20;99.90
13806;DHT22;6974;53.606;9.872;2024-02-21T00:50:31;10.20;99.90
13806;DHT22;6974;53.606;9.872;2024-02-21T00:52:58;10.20;99.90
13806;DHT22;6974;53.606;9.872;2024-02-21T00:55:24;10.20;99.90
13806;DHT22;6974;53.606;9.872;2024-02-21T00:57:51;10.20;99.90
13806;DHT22;6974;53.606;9.872;2024-02-21T01:00:19;10.20;99.90
13806;DHT22;6974;53.606;9.872;2024-02-21T01:02:47;10.20;99.90
13806;DHT22;6974;53.606;9.872;2024-02-21T01:05:14;10.20;99.90
13806;DHT22;6974;53.606;9.872;2024-02-21T01:07:40;10.20;99.90
13806;DHT22;6974;53.606;9.872;2024-02-21T01:10:08;10.30;99.90
13806;DHT22;6974;53.606;9.872;2024-02-21T01:12:35;10.30;99.90
13806;DHT22;6974;53.606;9.872;2024-02-21T01:15:02;10.30;99.90
13806;DHT22;6974;53.606;9.872;2024-02-21T01:17:29;10.20;99.90
13806;DHT22;6974;53.606;9.872;2024-02-21T01:19:57;10.30;99.90
13806;DHT22;6974;53.606;9.872;2024-02-21T01:22:24;10.20;99.90
13806;DHT22;6974;53.606;9.872;2024-02-21T01:24:51;10.20;99.90
13806;DHT22;6974;53.606;9.872;2024-02-21T01:27:17;10.30;99.90
13806;DHT22;6974;53.606;9.872;2024-02-21T01:29:45;10.30;99.90
13806;DHT22;6974;53.606;9.872;2024-02-21T01:32:12;10.30;99.90
13806;DHT22;6974;53.606;9.872;2024-02-21T01:34:38;10.20;99.90
13806;DHT22;6974;53.606;9.872;2024-02-21T01:37:07;10.30;99.90
13806;DHT22;6974;53.606;9.872;2024-02-21T01:39:34;10.30;99.90
13806;DHT22;6974;53.606;9.872;2024-02-21T01:42:01;10.20;99.90
13806;DHT22;6974;53.606;9.872;2024-02-21T01:44:27;10.20;99.90
13806;DHT22;6974;53.606;9.872;2024-02-21T01:46:54;10.30;99.90
13806;DHT22;6974;53.606;9.872;2024-02-21T01:49:21;10.30;99.90
13806;DHT22;6974;53.606;9.872;2024-02-21T01:51:49;10.20;99.90
13806;DHT22;6974;53.606;9.872;2024-02-21T01:54:18;10.10;99.90
13806;DHT22;6974;53.606;9.872;2024-02-21T01:56:46;10.10;99.90
13806;DHT22;6974;53.606;9.872;2024-02-21T01:59:14;10.20;99.90
13806;DHT22;6974;53.606;9.872;2024-02-21T02:01:41;10.20;99.90
13806;DHT22;6974;53.606;9.872;2024-02-21T02:04:09;10.20;99.90
13806;DHT22;6974;53.606;9.872;2024-02-21T02:06:36;10.10;99.90
13806;DHT22;6974;53.606;9.872;2024-02-21T02:09:03;10.10;99.90
13806;DHT22;6974;53.606;9.872;2024-02-21T02:11:31;10.10;99.90
13806;DHT22;6974;53.606;9.872;2024-02-21T02:13:58;10.10;99.90
13806;DHT22;6974;53.606;9.872;2024-02-21T02:16:25;10.10;99.90
13806;DHT22;6974;53.606;9.872;2024-02-21T02:18:52;10.20;99.90
13806;DHT22;6974;53.606;9.872;2024-02-21T02:21:26;10.10;99.90
13806;DHT22;6974;53.606;9.872;2024-02-21T02:23:55;10.10;99.90
13806;DHT22;6974;53.606;9.872;2024-02-21T02:26:22;10.10;99.90
13806;DHT22;6974;53.606;9.872;2024-02-21T02:28:48;10.00;99.90
13806;DHT22;6974;53.606;9.872;2024-02-21T02:31:15;10.00;99.90
13806;DHT22;6974;53.606;9.872;2024-02-21T02:33:42;9.90;99.90
13806;DHT22;6974;53.606;9.872;2024-02-21T02:36:10;9.90;99.90
13806;DHT22;6974;53.606;9.872;2024-02-21T02:38:37;9.90;99.90
13806;DHT22;6974;53.606;9.872;2024-02-21T02:41:05;9.90;99.90
13806;DHT22;6974;53.606;9.872;2024-02-21T02:43:32;9.90;99.90
13806;DHT22;6974;53.606;9.872;2024-02-21T02:45:59;9.90;99.90
13806;DHT22;6974;53.606;9.872;2024-02-21T02:48:25;9.90;99.90
13806;DHT22;6974;53.606;9.872;2024-02-21T02:50:52;9.90;99.90
13806;DHT22;6974;53.606;9.872;2024-02-21T02:53:19;9.90;99.90
13806;DHT22;6974;53.606;9.872;2024-02-21T02:55:46;9.90;99.90
13806;DHT22;6974;53.606;9.872;2024-02-21T02:58:14;9.90;99.90
13806;DHT22;6974;53.606;9.872;2024-02-21T03:00:41;10.00;99.90
13806;DHT22;6974;53.606;9.872;2024-02-21T03:03:07;10.00;99.90
13806;DHT22;6974;53.606;9.872;2024-02-21T03:05:34;10.00;99.90
13806;DHT22;6974;53.606;9.872;2024-02-21T03:08:01;10.00;99.90
13806;DHT22;6974;53.606;9.872;2024-02-21T03:10:32;10.00;99.90
13806;DHT22;6974;53.606;9.872;2024-02-21T03:12:59;10.00;99.90
13806;DHT22;6974;53.606;9.872;2024-02-21T03:15:27;10.00;99.90
13806;DHT22;6974;53.606;9.872;2024-02-21T03:17:54;10.00;99.90
13806;DHT22;6974;53.606;9.872;2024-02-21T03:20:20;10.00;99.90
13806;DHT22;6974;53.606;9.872;2024-02-21T03:22:47;10.00;99.90
13806;DHT22;6974;53.606;9.872;2024-02-21T03:25:14;10.00;99.90
13806;DHT22;6974;53.606;9.872;2024-02-21T03:27:41;10.00;99.90
13806;DHT22;6974;53.606;9.872;2024-02-21T03:30:09;10.00;99.90
13806;DHT22;6974;53.606;9.872;2024-02-21T03:32:37;10.10;99.90
13806;DHT22;6974;53.606;9.872;2024-02-21T03:35:05;10.10;99.90
13806;DHT22;6974;53.606;9.872;2024-02-21T03:37:32;10.10;99.90
13806;DHT22;6974;53.606;9.872;2024-02-21T03:39:58;10.10;99.90
13806;DHT22;6974;53.606;9.872;2024-02-21T03:42:25;10.10;99.90
13806;DHT22;6974;53.606;9.872;2024-02-21T03:44:55;10.10;99.90
13806;DHT22;6974;53.606;9.872;2024-02-21T03:47:21;10.10;99.90
13806;DHT22;6974;53.606;9.872;2024-02-21T03:49:49;10.10;99.90
13806;DHT22;6974;53.606;9.872;2024-02-21T03:52:16;10.10;99.90
13806;DHT22;6974;53.606;9.872;2024-02-21T03:54:43;10.10;99.90
13806;DHT22;6974;53.606;9.872;2024-02-21T03:57:10;10.20;99.90
13806;DHT22;6974;53.606;9.872;2024-02-21T03:59:37;10.20;99.90
13806;DHT22;6974;53.606;9.872;2024-02-21T04:02:05;10.20;99.90
13806;DHT22;6974;53.606;9.872;2024-02-21T04:04:34;10.20;99.90
13806;DHT22;6974;53.606;9.872;2024-02-21T04:07:02;10.20;99.90
13806;DHT22;6974;53.606;9.872;2024-02-21T04:09:32;10.10;99.90
13806;DHT22;6974;53.606;9.872;2024-02-21T04:11:59;10.20;99.90
13806;DHT22;6974;53.606;9.872;2024-02-21T04:14:26;10.20;99.90
13806;DHT22;6974;53.606;9.872;2024-02-21T04:16:53;10.20;99.90
13806;DHT22;6974;53.606;9.872;2024-02-21T04:19:19;10.20;99.90
13806;DHT22;6974;53.606;9.872;2024-02-21T04:21:46;10.20;99.90
13806;DHT22;6974;53.606;9.872;2024-02-21T04:24:14;10.20;99.90
13806;DHT22;6974;53.606;9.872;2024-02-21T04:26:41;10.20;99.90
13806;DHT22;6974;53.606;9.872;2024-02-21T04:29:09;10.20;99.90
13806;DHT22;6974;53.606;9.872;2024-02-21T04:31:36;10.10;99.90
13806;DHT22;6974;53.606;9.872;2024-02-21T04:34:02;10.10;99.90
13806;DHT22;6974;53.606;9.872;2024-02-21T04:36:29;10.10;99.90
13806;DHT22;6974;53.606;9.872;2024-02-21T04:38:56;10.10;99.90
13806;DHT22;6974;53.606;9.872;2024-02-21T04:41:24;10.10;99.90
13806;DHT22;6974;53.606;9.872;2024-02-21T04:43:51;10.10;99.90
13806;DHT22;6974;53.606;9.872;2024-02-21T04:46:18;10.10;99.90
13806;DHT22;6974;53.606;9.872;2024-02-21T04:48:45;10.00;99.90
13806;DHT22;6974;53.606;9.872;2024-02-21T04:51:12;10.10;99.90
13806;DHT22;6974;53.606;9.872;2024-02-21T04:53:39;10.10;99.90
13806;DHT22;6974;53.606;9.872;2024-02-21T04:56:06;10.10;99.90
13806;DHT22;6974;53.606;9.872;2024-02-21T04:58:37;10.00;99.90
13806;DHT22;6974;53.606;9.872;2024-02-21T05:01:04;10.00;99.90
13806;DHT22;6974;53.606;9.872;2024-02-21T05:03:31;10.10;99.90
13806;DHT22;6974;53.606;9.872;2024-02-21T05:05:59;10.00;99.90
13806;DHT22;6974;53.606;9.872;2024-02-21T05:08:26;10.00;99.90
13806;DHT22;6974;53.606;9.872;2024-02-21T05:10:52;10.00;99.90
13806;DHT22;6974;53.606;9.872;2024-02-21T05:13:20;10.00;99.90
13806;DHT22;6974;53.606;9.872;2024-02-21T05:15:48;10.00;99.90
13806;DHT22;6974;53.606;9.872;2024-02-21T05:18:15;10.00;99.90
13806;DHT22;6974;53.606;9.872;2024-02-21T05:20:41;10.00;99.90
13806;DHT22;6974;53.606;9.872;2024-02-21T05:23:08;10.10;99.90
13806;DHT22;6974;53.606;9.872;2024-02-21T05:25:35;10.10;99.90
13806;DHT22;6974;53.606;9.872;2024-02-21T05:28:02;10.00;99.90
13806;DHT22;6974;53.606;9.872;2024-02-21T05:30:31;10.10;99.90
13806;DHT22;6974;53.606;9.872;2024-02-21T05:33:03;10.10;99.90
13806;DHT22;6974;53.606;9.872;2024-02-21T05:35:30;10.00;99.90
13806;DHT22;6974;53.606;9.872;2024-02-21T05:37:56;10.00;99.90
13806;DHT22;6974;53.606;9.872;2024-02-21T05:40:25;10.00;99.90
13806;DHT22;6974;53.606;9.872;2024-02-21T05:42:52;10.00;99.90
13806;DHT22;6974;53.606;9.872;2024-02-21T05:45:18;10.00;99.90
13806;DHT22;6974;53.606;9.872;2024-02-21T05:47:45;10.00;99.90
13806;DHT22;6974;53.606;9.872;2024-02-21T05:50:13;9.90;99.90
13806;DHT22;6974;53.606;9.872;2024-02-21T05:52:42;9.90;99.90
13806;DHT22;6974;53.606;9.872;2024-02-21T05:55:09;9.90;99.90
13806;DHT22;6974;53.606;9.872;2024-02-21T05:57:35;10.00;99.90
13806;DHT22;6974;53.606;9.872;2024-02-21T06:00:04;10.00;99.90
13806;DHT22;6974;53.606;9.872;2024-02-21T06:02:31;10.00;99.90
13806;DHT22;6974;53.606;9.872;2024-02-21T06:04:58;10.00;99.90
13806;DHT22;6974;53.606;9.872;2024-02-21T06:07:26;10.00;99.90
13806;DHT22;6974;53.606;9.872;2024-02-21T06:09:53;10.00;99.90
13806;DHT22;6974;53.606;9.872;2024-02-21T06:12:20;10.00;99.90
13806;DHT22;6974;53.606;9.872;2024-02-21T06:14:47;10.00;99.90
13806;DHT22;6974;53.606;9.872;2024-02-21T06:17:14;10.00;99.90
13806;DHT22;6974;53.606;9.872;2024-02-21T06:19:43;10.00;99.90
13806;DHT22;6974;53.606;9.872;2024-02-21T06:22:10;10.10;99.90
13806;DHT22;6974;53.606;9.872;2024-02-21T06:24:38;10.00;99.90
13806;DHT22;6974;53.606;9.872;2024-02-21T06:27:05;10.10;99.90
13806;DHT22;6974;53.606;9.872;2024-02-21T06:35:40;10.00;99.90
13806;DHT22;6974;53.606;9.872;2024-02-21T06:38:13;10.00;99.90
13806;DHT22;6974;53.606;9.872;2024-02-21T06:40:42;10.00;99.90
13806;DHT22;6974;53.606;9.872;2024-02-21T06:43:14;10.00;99.90
13806;DHT22;6974;53.606;9.872;2024-02-21T06:45:41;9.90;99.90
13806;DHT22;6974;53.606;9.872;2024-02-21T06:48:08;9.90;99.90
13806;DHT22;6974;53.606;9.872;2024-02-21T06:50:35;10.00;99.90
13806;DHT22;6974;53.606;9.872;2024-02-21T06:53:03;10.00;99.90
13806;DHT22;6974;53.606;9.872;2024-02-21T06:55:30;10.00;99.90
13806;DHT22;6974;53.606;9.872;2024-02-21T06:57:58;10.10;99.90
13806;DHT22;6974;53.606;9.872;2024-02-21T07:00:25;10.10;99.90
13806;DHT22;6974;53.606;9.872;2024-02-21T07:02:52;10.10;99.90
13806;DHT22;6974;53.606;9.872;2024-02-21T07:05:19;10.10;99.90
13806;DHT22;6974;53.606;9.872;2024-02-21T07:07:46;10.20;99.90
13806;DHT22;6974;53.606;9.872;2024-02-21T07:10:13;10.10;99.90
13806;DHT22;6974;53.606;9.872;2024-02-21T07:12:40;10.10;99.90
13806;DHT22;6974;53.606;9.872;2024-02-21T07:15:10;10.10;99.90
13806;DHT22;6974;53.606;9.872;2024-02-21T07:17:37;10.10;99.90
13806;DHT22;6974;53.606;9.872;2024-02-21T07:20:04;10.10;99.90
13806;DHT22;6974;53.606;9.872;2024-02-21T07:22:31;10.20;99.90
13806;DHT22;6974;53.606;9.872;2024-02-21T07:24:58;10.10;99.90
13806;DHT22;6974;53.606;9.872;2024-02-21T07:27:25;10.10;99.90
13806;DHT22;6974;53.606;9.872;2024-02-21T07:29:56;10.10;99.90
13806;DHT22;6974;53.606;9.872;2024-02-21T07:32:24;10.10;99.90
13806;DHT22;6974;53.606;9.872;2024-02-21T07:34:51;10.10;99.90
13806;DHT22;6974;53.606;9.872;2024-02-21T07:37:18;10.10;99.90
13806;DHT22;6974;53.606;9.872;2024-02-21T07:39:45;10.10;99.90
13806;DHT22;6974;53.606;9.872;2024-02-21T07:42:12;10.10;99.90
13806;DHT22;6974;53.606;9.872;2024-02-21T07:44:39;10.10;99.90
13806;DHT22;6974;53.606;9.872;2024-02-21T07:47:06;10.10;99.90
13806;DHT22;6974;53.606;9.872;2024-02-21T07:49:40;10.20;99.90
13806;DHT22;6974;53.606;9.872;2024-02-21T07:52:07;10.10;99.90
13806;DHT22;6974;53.606;9.872;2024-02-21T07:54:34;10.20;99.90
13806;DHT22;6974;53.606;9.872;2024-02-21T07:57:01;10.10;99.90
13806;DHT22;6974;53.606;9.872;2024-02-21T07:59:29;10.10;99.90
13806;DHT22;6974;53.606;9.872;2024-02-21T08:01:56;10.10;99.90
13806;DHT22;6974;53.606;9.872;2024-02-21T08:04:23;10.00;99.90
13806;DHT22;6974;53.606;9.872;2024-02-21T08:06:53;10.00;99.90
13806;DHT22;6974;53.606;9.872;2024-02-21T08:09:21;10.10;99.90
13806;DHT22;6974;53.606;9.872;2024-02-21T08:11:49;10.10;99.90
13806;DHT22;6974;53.606;9.872;2024-02-21T08:14:16;10.10;99.90
13806;DHT22;6974;53.606;9.872;2024-02-21T08:16:43;10.10;99.90
13806;DHT22;6974;53.606;9.872;2024-02-21T08:19:11;10.20;99.90
13806;DHT22;6974;53.606;9.872;2024-02-21T08:21:38;10.20;99.90
13806;DHT22;6974;53.606;9.872;2024-02-21T08:24:07;10.20;99.90
13806;DHT22;6974;53.606;9.872;2024-02-21T08:26:34;10.20;99.90
13806;DHT22;6974;53.606;9.872;2024-02-21T08:29:01;10.20;99.90
13806;DHT22;6974;53.606;9.872;2024-02-21T08:31:28;10.20;99.90
13806;DHT22;6974;53.606;9.872;2024-02-21T08:33:57;10.30;99.90
13806;DHT22;6974;53.606;9.872;2024-02-21T08:36:28;10.30;99.90
13806;DHT22;6974;53.606;9.872;2024-02-21T08:38:56;10.30;99.90
13806;DHT22;6974;53.606;9.872;2024-02-21T08:41:25;10.30;99.90
13806;DHT22;6974;53.606;9.872;2024-02-21T08:43:53;10.30;99.90
13806;DHT22;6974;53.606;9.872;2024-02-21T08:46:21;10.30;99.90
13806;DHT22;6974;53.606;9.872;2024-02-21T08:48:49;10.40;99.90
13806;DHT22;6974;53.606;9.872;2024-02-21T08:51:20;10.40;99.90
13806;DHT22;6974;53.606;9.872;2024-02-21T08:53:48;10.40;99.90
13806;DHT22;6974;53.606;9.872;2024-02-21T08:56:15;10.40;99.90
13806;DHT22;6974;53.606;9.872;2024-02-21T08:58:45;10.40;99.90
13806;DHT22;6974;53.606;9.872;2024-02-21T09:01:12;10.40;99.90
13806;DHT22;6974;53.606;9.872;2024-02-21T09:03:40;10.40;99.90
13806;DHT22;6974;53.606;9.872;2024-02-21T09:06:09;10.40;99.90
13806;DHT22;6974;53.606;9.872;2024-02-21T09:08:36;10.40;99.90
13806;DHT22;6974;53.606;9.872;2024-02-21T09:11:05;10.50;99.90
13806;DHT22;6974;53.606;9.872;2024-02-21T09:13:33;10.50;99.90
13806;DHT22;6974;53.606;9.872;2024-02-21T09:16:01;10.50;99.90
13806;DHT22;6974;53.606;9.872;2024-02-21T09:18:29;10.50;99.90
13806;DHT22;6974;53.606;9.872;2024-02-21T09:20:56;10.40;99.90
13806;DHT22;6974;53.606;9.872;2024-02-21T09:23:24;10.50;99.90
13806;DHT22;6974;53.606;9.872;2024-02-21T09:25:51;10.50;99.90
13806;DHT22;6974;53.606;9.872;2024-02-21T09:28:21;10.40;99.90
13806;DHT22;6974;53.606;9.872;2024-02-21T09:30:48;10.40;99.90
13806;DHT22;6974;53.606;9.872;2024-02-21T09:33:16;10.30;99.90
13806;DHT22;6974;53.606;9.872;2024-02-21T09:35:43;10.40;99.90
13806;DHT22;6974;53.606;9.872;2024-02-21T09:38:10;10.30;99.90
13806;DHT22;6974;53.606;9.872;2024-02-21T09:40:38;10.30;99.90
13806;DHT22;6974;53.606;9.872;2024-02-21T09:43:07;10.30;99.90
13806;DHT22;6974;53.606;9.872;2024-02-21T09:45:35;10.30;99.90
13806;DHT22;6974;53.606;9.872;2024-02-21T09:48:29;10.30;99.90
13806;DHT22;6974;53.606;9.872;2024-02-21T09:50:57;10.30;99.90
13806;DHT22;6974;53.606;9.872;2024-02-21T09:53:26;10.30;99.90
13806;DHT22;6974;53.606;9.872;2024-02-21T09:55:55;10.30;99.90
13806;DHT22;6974;53.606;9.872;2024-02-21T09:58:23;10.40;99.90
13806;DHT22;6974;53.606;9.872;2024-02-21T10:00:53;10.40;99.90
13806;DHT22;6974;53.606;9.872;2024-02-21T10:03:24;10.40;99.90
13806;DHT22;6974;53.606;9.872;2024-02-21T10:05:53;10.40;99.90
13806;DHT22;6974;53.606;9.872;2024-02-21T10:08:20;10.50;99.90
13806;DHT22;6974;53.606;9.872;2024-02-21T10:10:47;10.40;99.90
13806;DHT22;6974;53.606;9.872;2024-02-21T10:13:25;10.40;99.90
13806;DHT22;6974;53.606;9.872;2024-02-21T10:16:06;10.50;99.90
13806;DHT22;6974;53.606;9.872;2024-02-21T10:18:34;10.50;99.90
13806;DHT22;6974;53.606;9.872;2024-02-21T10:21:05;10.50;99.90
13806;DHT22;6974;53.606;9.872;2024-02-21T10:23:42;10.50;99.90
13806;DHT22;6974;53.606;9.872;2024-02-21T10:26:09;10.50;99.90
13806;DHT22;6974;53.606;9.872;2024-02-21T10:28:37;10.60;99.90
13806;DHT22;6974;53.606;9.872;2024-02-21T10:31:08;10.50;99.90
13806;DHT22;6974;53.606;9.872;2024-02-21T10:33:36;10.50;99.90
13806;DHT22;6974;53.606;9.872;2024-02-21T10:36:09;10.60;99.90
13806;DHT22;6974;53.606;9.872;2024-02-21T10:38:37;10.60;99.90
13806;DHT22;6974;53.606;9.872;2024-02-21T10:41:05;10.50;99.90
13806;DHT22;6974;53.606;9.872;2024-02-21T10:43:38;10.60;99.90
13806;DHT22;6974;53.606;9.872;2024-02-21T10:46:07;10.60;99.90
13806;DHT22;6974;53.606;9.872;2024-02-21T10:48:42;10.60;99.90
13806;DHT22;6974;53.606;9.872;2024-02-21T10:51:16;10.60;99.90
13806;DHT22;6974;53.606;9.872;2024-02-21T10:53:53;10.50;99.90
13806;DHT22;6974;53.606;9.872;2024-02-21T10:56:28;10.60;99.90
13806;DHT22;6974;53.606;9.872;2024-02-21T10:58:57;10.60;99.90
13806;DHT22;6974;53.606;9.872;2024-02-21T11:01:25;10.60;99.90
13806;DHT22;6974;53.606;9.872;2024-02-21T11:03:55;10.50;99.90
13806;DHT22;6974;53.606;9.872;2024-02-21T11:06:25;10.60;99.90
13806;DHT22;6974;53.606;9.872;2024-02-21T11:09:03;10.60;99.90
13806;DHT22;6974;53.606;9.872;2024-02-21T11:11:33;10.60;99.90
13806;DHT22;6974;53.606;9.872;2024-02-21T11:14:07;10.60;99.90
13806;DHT22;6974;53.606;9.872;2024-02-21T11:16:38;10.50;99.90
13806;DHT22;6974;53.606;9.872;2024-02-21T11:19:06;10.60;99.90
13806;DHT22;6974;53.606;9.872;2024-02-21T11:21:35;10.60;99.90
13806;DHT22;6974;53.606;9.872;2024-02-21T11:24:05;10.60;99.90
13806;DHT22;6974;53.606;9.872;2024-02-21T11:26:32;10.60;99.90
13806;DHT22;6974;53.606;9.872;2024-02-21T11:29:00;10.60;99.90
13806;DHT22;6974;53.606;9.872;2024-02-21T11:31:38;10.60;99.90
13806;DHT22;6974;53.606;9.872;2024-02-21T11:34:09;10.60;99.90
13806;DHT22;6974;53.606;9.872;2024-02-21T11:36:57;10.60;99.90
13806;DHT22;6974;53.606;9.872;2024-02-21T11:39:31;10.60;99.90
13806;DHT22;6974;53.606;9.872;2024-02-21T11:42:02;10.60;99.90
13806;DHT22;6974;53.606;9.872;2024-02-21T11:44:45;10.60;99.90
13806;DHT22;6974;53.606;9.872;2024-02-21T11:47:14;10.70;99.90
13806;DHT22;6974;53.606;9.872;2024-02-21T11:49:44;10.60;99.90
13806;DHT22;6974;53.606;9.872;2024-02-21T11:52:13;10.60;99.90
13806;DHT22;6974;53.606;9.872;2024-02-21T11:54:41;10.60;99.90
13806;DHT22;6974;53.606;9.872;2024-02-21T11:57:08;10.60;99.90
13806;DHT22;6974;53.606;9.872;2024-02-21T11:59:35;10.60;99.90
13806;DHT22;6974;53.606;9.872;2024-02-21T12:02:02;10.60;99.90
13806;DHT22;6974;53.606;9.872;2024-02-21T12:04:30;10.70;99.90
13806;DHT22;6974;53.606;9.872;2024-02-21T12:06:57;10.60;99.90
13806;DHT22;6974;53.606;9.872;2024-02-21T12:09:26;10.60;99.90
13806;DHT22;6974;53.606;9.872;2024-02-21T12:12:00;10.60;99.90
13806;DHT22;6974;53.606;9.872;2024-02-21T12:14:28;10.60;99.90
13806;DHT22;6974;53.606;9.872;2024-02-21T12:16:55;10.60;99.90
13806;DHT22;6974;53.606;9.872;2024-02-21T12:19:22;10.70;99.90
13806;DHT22;6974;53.606;9.872;2024-02-21T12:21:49;10.70;99.90
13806;DHT22;6974;53.606;9.872;2024-02-21T12:24:21;10.70;99.90
13806;DHT22;6974;53.606;9.872;2024-02-21T12:26:50;10.60;99.90
13806;DHT22;6974;53.606;9.872;2024-02-21T12:29:17;10.60;99.90
13806;DHT22;6974;53.606;9.872;2024-02-21T12:31:44;10.60;99.90
13806;DHT22;6974;53.606;9.872;2024-02-21T12:34:11;10.60;99.90
13806;DHT22;6974;53.606;9.872;2024-02-21T12:36:41;10.60;99.90
13806;DHT22;6974;53.606;9.872;2024-02-21T12:39:09;10.50;99.90
13806;DHT22;6974;53.606;9.872;2024-02-21T12:41:36;10.60;99.90
13806;DHT22;6974;53.606;9.872;2024-02-21T12:44:05;10.50;99.90
13806;DHT22;6974;53.606;9.872;2024-02-21T12:46:32;10.60;99.90
13806;DHT22;6974;53.606;9.872;2024-02-21T12:48:59;10.50;99.90
13806;DHT22;6974;53.606;9.872;2024-02-21T12:51:26;10.50;99.90
13806;DHT22;6974;53.606;9.872;2024-02-21T12:53:53;10.40;99.90
13806;DHT22;6974;53.606;9.872;2024-02-21T12:56:20;10.50;99.90
13806;DHT22;6974;53.606;9.872;2024-02-21T12:58:47;10.50;99.90
13806;DHT22;6974;53.606;9.872;2024-02-21T13:01:15;10.50;99.90
13806;DHT22;6974;53.606;9.872;2024-02-21T13:03:42;10.50;99.90
13806;DHT22;6974;53.606;9.872;2024-02-21T13:06:09;10.50;99.90
13806;DHT22;6974;53.606;9.872;2024-02-21T13:08:36;10.50;99.90
13806;DHT22;6974;53.606;9.872;2024-02-21T13:11:03;10.50;99.90
13806;DHT22;6974;53.606;9.872;2024-02-21T13:13:30;10.50;99.90
13806;DHT22;6974;53.606;9.872;2024-02-21T13:15:57;10.50;99.90
13806;DHT22;6974;53.606;9.872;2024-02-21T13:18:26;10.50;99.90
13806;DHT22;6974;53.606;9.872;2024-02-21T13:20:52;10.60;99.90
13806;DHT22;6974;53.606;9.872;2024-02-21T13:23:19;10.60;99.90
13806;DHT22;6974;53.606;9.872;2024-02-21T13:25:47;10.60;99.90
13806;DHT22;6974;53.606;9.872;2024-02-21T13:28:14;10.60;99.90
13806;DHT22;6974;53.606;9.872;2024-02-21T13:30:42;10.60;99.90
13806;DHT22;6974;53.606;9.872;2024-02-21T13:33:08;10.70;99.90
13806;DHT22;6974;53.606;9.872;2024-02-21T13:35:37;10.70;99.90
13806;DHT22;6974;53.606;9.872;2024-02-21T13:38:04;10.70;99.90
13806;DHT22;6974;53.606;9.872;2024-02-21T13:40:31;10.70;99.90
13806;DHT22;6974;53.606;9.872;2024-02-21T13:42:58;10.80;99.90
13806;DHT22;6974;53.606;9.872;2024-02-21T13:45:24;10.80;99.90
13806;DHT22;6974;53.606;9.872;2024-02-21T13:47:50;10.80;99.90
13806;DHT22;6974;53.606;9.872;2024-02-21T13:50:18;10.70;99.90
13806;DHT22;6974;53.606;9.872;2024-02-21T13:52:46;10.80;99.90
13806;DHT22;6974;53.606;9.872;2024-02-21T13:55:13;10.80;99.90
13806;DHT22;6974;53.606;9.872;2024-02-21T13:57:40;10.80;99.90
13806;DHT22;6974;53.606;9.872;2024-02-21T14:00:08;10.80;99.90
13806;DHT22;6974;53.606;9.872;2024-02-21T14:02:36;10.80;99.90
13806;DHT22;6974;53.606;9.872;2024-02-21T14:05:03;10.80;99.90
13806;DHT22;6974;53.606;9.872;2024-02-21T14:07:31;10.90;99.90
13806;DHT22;6974;53.606;9.872;2024-02-21T14:10:00;10.90;99.90
13806;DHT22;6974;53.606;9.872;2024-02-21T14:12:26;10.90;99.90
13806;DHT22;6974;53.606;9.872;2024-02-21T14:14:53;10.90;99.90
13806;DHT22;6974;53.606;9.872;2024-02-21T14:17:22;10.90;99.90
13806;DHT22;6974;53.606;9.872;2024-02-21T14:19:50;10.90;99.90
13806;DHT22;6974;53.606;9.872;2024-02-21T14:22:17;11.00;99.90
13806;DHT22;6974;53.606;9.872;2024-02-21T14:24:44;11.10;99.90
13806;DHT22;6974;53.606;9.872;2024-02-21T14:27:13;11.10;99.90
13806;DHT22;6974;53.606;9.872;2024-02-21T14:29:40;11.10;99.90
13806;DHT22;6974;53.606;9.872;2024-02-21T14:32:07;11.10;99.90
13806;DHT22;6974;53.606;9.872;2024-02-21T14:34:35;11.10;99.90
13806;DHT22;6974;53.606;9.872;2024-02-21T14:37:02;11.10;99.90
13806;DHT22;6974;53.606;9.872;2024-02-21T14:39:29;11.20;99.90
13806;DHT22;6974;53.606;9.872;2024-02-21T14:41:57;11.20;99.90
13806;DHT22;6974;53.606;9.872;2024-02-21T14:44:26;11.10;99.90
13806;DHT22;6974;53.606;9.872;2024-02-21T14:46:53;11.10;99.90
13806;DHT22;6974;53.606;9.872;2024-02-21T14:49:20;11.20;99.90
13806;DHT22;6974;53.606;9.872;2024-02-21T14:51:47;11.20;99.90
13806;DHT22;6974;53.606;9.872;2024-02-21T14:54:14;11.20;99.90
13806;DHT22;6974;53.606;9.872;2024-02-21T14:56:41;11.20;99.90
13806;DHT22;6974;53.606;9.872;2024-02-21T14:59:09;11.20;99.90
13806;DHT22;6974;53.606;9.872;2024-02-21T15:01:37;11.10;99.90
13806;DHT22;6974;53.606;9.872;2024-02-21T15:04:04;11.10;99.90
13806;DHT22;6974;53.606;9.872;2024-02-21T15:06:32;11.20;99.90
13806;DHT22;6974;53.606;9.872;2024-02-21T15:09:01;11.20;99.90
13806;DHT22;6974;53.606;9.872;2024-02-21T15:11:29;11.10;99.90
13806;DHT22;6974;53.606;9.872;2024-02-21T15:13:56;11.10;99.90
13806;DHT22;6974;53.606;9.872;2024-02-21T15:16:22;11.10;99.90
13806;DHT22;6974;53.606;9.872;2024-02-21T15:18:50;11.20;99.90
13806;DHT22;6974;53.606;9.872;2024-02-21T15:21:17;11.10;99.90
13806;DHT22;6974;53.606;9.872;2024-02-21T15:23:44;11.20;99.90
13806;DHT22;6974;53.606;9.872;2024-02-21T15:26:11;11.20;99.90
13806;DHT22;6974;53.606;9.872;2024-02-21T15:28:39;11.10;99.90
13806;DHT22;6974;53.606;9.872;2024-02-21T15:31:06;11.10;99.90
13806;DHT22;6974;53.606;9.872;2024-02-21T15:33:33;11.10;99.90
13806;DHT22;6974;53.606;9.872;2024-02-21T15:36:01;11.10;99.90
13806;DHT22;6974;53.606;9.872;2024-02-21T15:38:29;11.10;99.90
13806;DHT22;6974;53.606;9.872;2024-02-21T15:40:56;11.00;99.90
13806;DHT22;6974;53.606;9.872;2024-02-21T15:43:23;11.00;99.90
13806;DHT22;6974;53.606;9.872;2024-02-21T15:45:52;11.00;99.90
13806;DHT22;6974;53.606;9.872;2024-02-21T15:48:19;11.00;99.90
13806;DHT22;6974;53.606;9.872;2024-02-21T15:50:48;11.00;99.90
13806;DHT22;6974;53.606;9.872;2024-02-21T15:53:16;11.00;99.90
13806;DHT22;6974;53.606;9.872;2024-02-21T15:55:43;11.00;99.90
13806;DHT22;6974;53.606;9.872;2024-02-21T15:58:11;11.00;99.90